Time;durP1;ratioP1;P1;durP2;ratioP2;P2;SDS_P1;SDS_P2;PMS_P1;PMS_P2;Temp;Humidity;BMP_temperature;BMP_pressure;BME280_temperature;BME280_humidity;BME280_pressure;Samples;Min_cycle;Max_cycle;Signal;HPM_P1;HPM_P2
2022/05/25 00:00:49;;;;;;;1.30;1.10;;;14.00;99.90;;;;;;5010455;28;20443;-71
2022/05/25 00:03:16;;;;;;;1.70;1.30;;;14.00;99.90;;;;;;5010109;28;20461;-71
2022/05/25 00:05:43;;;;;;;1.67;1.30;;;14.00;99.90;;;;;;5005899;28;20625;-70
2022/05/25 00:08:11;;;;;;;1.63;1.13;;;13.90;99.90;;;;;;5018502;28;20874;-71
2022/05/25 00:10:38;;;;;;;1.30;1.20;;;13.90;99.90;;;;;;5018254;28;20485;-71
2022/05/25 00:13:07;;;;;;;1.73;1.43;;;13.80;99.90;;;;;;5013774;28;21914;-71
2022/05/25 00:15:34;;;;;;;1.60;1.00;;;13.80;99.90;;;;;;5026461;28;20505;-71
2022/05/25 00:18:02;;;;;;;1.40;1.10;;;13.80;99.90;;;;;;5019280;28;20874;-70
2022/05/25 00:20:27;;;;;;;1.47;1.10;;;13.80;99.90;;;;;;5024968;28;20498;-70
2022/05/25 00:22:56;;;;;;;1.80;1.30;;;13.80;99.90;;;;;;5017518;28;20442;-70
2022/05/25 00:25:26;;;;;;;1.47;1.13;;;13.70;99.90;;;;;;5021424;28;20503;-70
2022/05/25 00:27:56;;;;;;;1.70;1.43;;;13.70;99.90;;;;;;5012857;28;21085;-71
2022/05/25 00:30:25;;;;;;;1.67;1.40;;;13.70;99.90;;;;;;5018242;28;20981;-71
2022/05/25 00:32:53;;;;;;;1.60;1.37;;;13.50;99.90;;;;;;5019063;28;20474;-70
2022/05/25 00:35:22;;;;;;;1.73;1.30;;;13.50;99.90;;;;;;5029297;28;20521;-71
2022/05/25 00:37:50;;;;;;;2.33;1.00;;;13.50;99.90;;;;;;5026929;28;20474;-72
2022/05/25 00:40:20;;;;;;;2.80;1.13;;;13.40;99.90;;;;;;5021638;28;20440;-71
2022/05/25 00:42:46;;;;;;;1.70;1.10;;;13.30;99.90;;;;;;5021621;28;20471;-71
2022/05/25 00:45:15;;;;;;;2.50;1.17;;;13.20;99.90;;;;;;5008459;28;20489;-70
2022/05/25 00:47:49;;;;;;;1.40;1.20;;;13.20;99.90;;;;;;5011502;28;20513;-71
2022/05/25 00:50:19;;;;;;;1.40;1.10;;;13.20;99.90;;;;;;5019208;28;20466;-71
2022/05/25 00:52:49;;;;;;;2.17;1.10;;;13.20;99.90;;;;;;5022583;28;20456;-70
2022/05/25 00:55:26;;;;;;;1.10;1.00;;;13.10;99.90;;;;;;5019067;28;20676;-71
2022/05/25 00:57:54;;;;;;;1.60;1.20;;;12.90;99.90;;;;;;5019067;28;20474;-71
2022/05/25 01:00:24;;;;;;;2.43;1.50;;;12.90;99.90;;;;;;5009526;28;20529;-71
2022/05/25 01:02:57;;;;;;;1.20;0.93;;;12.90;99.90;;;;;;5019563;28;20666;-70
2022/05/25 01:05:29;;;;;;;2.03;1.40;;;12.70;99.90;;;;;;5018568;28;20488;-71
2022/05/25 01:08:07;;;;;;;1.73;1.27;;;12.70;99.90;;;;;;5020623;28;20665;-72
2022/05/25 01:10:45;;;;;;;1.90;1.13;;;12.70;99.90;;;;;;5020137;28;22130;-71
2022/05/25 01:13:20;;;;;;;2.17;1.97;;;12.60;99.90;;;;;;5015275;28;20495;-71
2022/05/25 01:16:12;;;;;;;3.90;1.40;;;12.60;99.90;;;;;;5022247;28;20569;-71
2022/05/25 01:18:47;;;;;;;1.83;1.37;;;12.70;99.90;;;;;;5019073;28;20529;-70
2022/05/25 01:21:22;;;;;;;1.30;1.17;;;12.70;99.90;;;;;;5020649;28;21951;-71
2022/05/25 01:24:12;;;;;;;4.57;1.50;;;12.60;99.90;;;;;;5017067;28;20496;-71
2022/05/25 01:27:10;;;;;;;2.37;1.30;;;12.60;99.90;;;;;;5019843;28;20482;-71
2022/05/25 01:29:50;;;;;;;2.83;1.50;;;12.50;99.90;;;;;;5011739;28;20445;-70
2022/05/25 01:32:26;;;;;;;2.33;1.40;;;12.30;99.90;;;;;;5015825;28;20980;-71
2022/05/25 01:34:59;;;;;;;2.53;1.47;;;12.30;99.90;;;;;;5010428;28;21001;-71
2022/05/25 01:37:35;;;;;;;1.43;1.30;;;12.30;99.90;;;;;;5019802;28;20473;-71
2022/05/25 01:40:08;;;;;;;2.10;1.40;;;12.50;99.90;;;;;;5007627;28;20547;-72
2022/05/25 01:42:40;;;;;;;2.37;1.23;;;12.50;99.90;;;;;;5020142;28;20489;-72
2022/05/25 01:45:10;;;;;;;2.07;1.20;;;12.60;99.90;;;;;;5018366;28;20932;-71
2022/05/25 01:47:42;;;;;;;3.20;1.37;;;12.60;99.90;;;;;;5021389;28;20586;-71
2022/05/25 01:50:13;;;;;;;2.53;1.60;;;12.70;99.90;;;;;;5020550;28;20475;-71
2022/05/25 01:52:44;;;;;;;4.03;1.40;;;12.60;99.90;;;;;;5021976;28;20467;-71
2022/05/25 01:55:15;;;;;;;2.17;1.43;;;12.50;99.90;;;;;;5019830;28;20485;-71
2022/05/25 01:57:44;;;;;;;2.20;1.80;;;12.50;99.90;;;;;;5021064;28;20469;-71
2022/05/25 02:00:26;;;;;;;2.03;1.13;;;12.40;99.90;;;;;;5011773;28;20997;-71
2022/05/25 02:05:48;;;;;;;3.57;1.73;;;12.40;99.90;;;;;;5015773;28;20481;-71
2022/05/25 02:08:23;;;;;;;2.00;1.80;;;12.30;99.90;;;;;;5022846;28;20640;-71
2022/05/25 02:11:00;;;;;;;1.90;1.30;;;12.30;99.90;;;;;;5021004;28;20517;-71
2022/05/25 02:13:46;;;;;;;1.50;1.40;;;12.40;99.90;;;;;;5020483;28;20469;-71
2022/05/25 02:16:29;;;;;;;3.53;1.43;;;12.30;99.90;;;;;;5022100;28;20894;-71
2022/05/25 02:19:05;;;;;;;2.60;1.50;;;12.30;99.90;;;;;;5015703;28;21051;-71
2022/05/25 02:21:35;;;;;;;1.90;1.40;;;12.30;99.90;;;;;;5013499;28;20451;-71
2022/05/25 02:24:12;;;;;;;5.83;2.30;;;12.20;99.90;;;;;;5018881;28;20468;-71
2022/05/25 02:26:43;;;;;;;1.53;1.33;;;12.30;99.90;;;;;;5018789;28;20592;-71
2022/05/25 02:29:14;;;;;;;2.13;1.70;;;12.30;99.90;;;;;;5013417;28;20435;-71
2022/05/25 02:31:47;;;;;;;3.27;1.33;;;12.20;99.90;;;;;;5018363;28;20876;-71
2022/05/25 02:34:17;;;;;;;2.27;1.70;;;12.20;99.90;;;;;;5018386;28;20464;-70
2022/05/25 02:36:46;;;;;;;2.13;1.63;;;12.20;99.90;;;;;;5018013;28;20641;-71
2022/05/25 02:39:13;;;;;;;2.53;1.80;;;12.40;99.90;;;;;;5018680;28;20916;-70
2022/05/25 02:41:46;;;;;;;1.43;1.23;;;12.30;99.90;;;;;;5012820;28;20464;-70
2022/05/25 02:44:13;;;;;;;4.80;1.97;;;12.30;99.90;;;;;;5018045;28;20521;-71
2022/05/25 02:46:41;;;;;;;2.57;1.60;;;12.10;99.90;;;;;;5022618;28;21124;-70
2022/05/25 02:49:08;;;;;;;2.17;1.57;;;12.10;99.90;;;;;;5016178;28;20468;-71
2022/05/25 02:51:35;;;;;;;2.50;1.90;;;12.20;99.90;;;;;;5012874;28;20459;-70
2022/05/25 02:54:02;;;;;;;1.90;1.20;;;12.10;99.90;;;;;;5009508;28;20668;-71
2022/05/25 02:56:29;;;;;;;2.97;2.33;;;11.90;99.90;;;;;;5002484;28;20994;-71
2022/05/25 02:58:56;;;;;;;3.00;1.60;;;12.00;99.90;;;;;;5004179;28;20436;-72
2022/05/25 03:01:22;;;;;;;5.43;1.77;;;12.10;99.90;;;;;;5025072;28;20465;-72
2022/05/25 03:03:51;;;;;;;2.77;2.07;;;12.00;99.90;;;;;;5025016;28;20464;-71
2022/05/25 03:06:19;;;;;;;2.43;1.67;;;12.00;99.90;;;;;;5019870;28;20512;-72
2022/05/25 03:08:45;;;;;;;2.03;1.70;;;11.90;99.90;;;;;;5018431;28;20489;-72
2022/05/25 03:11:12;;;;;;;2.77;1.87;;;11.90;99.90;;;;;;5018101;28;20441;-72
2022/05/25 03:13:41;;;;;;;2.97;2.03;;;11.80;99.90;;;;;;5017575;28;20487;-71
2022/05/25 03:16:08;;;;;;;2.43;2.23;;;11.70;99.90;;;;;;5020325;28;20460;-71
2022/05/25 03:18:35;;;;;;;2.40;1.60;;;11.70;99.90;;;;;;5024739;28;20454;-71
2022/05/25 03:21:03;;;;;;;3.00;2.33;;;11.70;99.90;;;;;;5012129;28;20465;-71
2022/05/25 03:23:30;;;;;;;2.43;2.23;;;11.70;99.90;;;;;;5016486;28;21014;-71
2022/05/25 03:25:57;;;;;;;2.50;1.90;;;11.60;99.90;;;;;;5017614;28;20494;-71
2022/05/25 03:28:23;;;;;;;3.97;2.03;;;11.60;99.90;;;;;;5024937;28;21001;-71
2022/05/25 03:30:50;;;;;;;2.30;2.07;;;11.60;99.90;;;;;;5017821;28;20464;-71
2022/05/25 03:33:17;;;;;;;4.87;2.17;;;11.60;99.90;;;;;;5020197;28;20457;-71
2022/05/25 03:35:44;;;;;;;4.30;2.33;;;11.70;99.90;;;;;;5020477;28;20517;-71
2022/05/25 03:38:12;;;;;;;5.23;2.30;;;11.70;99.90;;;;;;5022287;28;20465;-71
2022/05/25 03:40:40;;;;;;;2.03;1.87;;;11.60;99.90;;;;;;5017178;28;20485;-71
2022/05/25 03:43:08;;;;;;;2.07;1.70;;;11.80;99.90;;;;;;5025442;28;20479;-71
2022/05/25 03:45:35;;;;;;;2.23;1.90;;;11.80;99.90;;;;;;5015469;28;20498;-71
2022/05/25 03:48:07;;;;;;;16.00;2.80;;;11.80;99.90;;;;;;5017526;28;20548;-71
2022/05/25 03:50:33;;;;;;;5.03;2.50;;;11.90;99.90;;;;;;5013263;28;20475;-71
2022/05/25 03:53:00;;;;;;;3.63;2.10;;;11.90;99.90;;;;;;5012500;28;20495;-71
2022/05/25 03:55:28;;;;;;;3.50;2.60;;;11.90;99.90;;;;;;5010163;28;20493;-71
2022/05/25 03:57:55;;;;;;;5.53;1.97;;;11.90;99.90;;;;;;5019317;28;20488;-71
2022/05/25 04:00:22;;;;;;;3.50;2.20;;;11.90;99.90;;;;;;5016383;28;20507;-71
2022/05/25 04:02:49;;;;;;;4.23;2.13;;;12.00;99.90;;;;;;5027796;22;20471;-77
2022/05/25 04:05:15;;;;;;;5.97;3.30;;;12.00;99.90;;;;;;5022744;28;20475;-77
2022/05/25 04:07:44;;;;;;;6.60;2.17;;;12.10;99.90;;;;;;5042347;28;20588;-78
2022/05/25 04:10:13;;;;;;;4.63;2.20;;;12.10;99.90;;;;;;5031794;28;20505;-77
2022/05/25 04:12:42;;;;;;;3.63;2.43;;;12.10;99.90;;;;;;5033112;28;20464;-77
2022/05/25 04:15:11;;;;;;;10.50;2.60;;;12.10;99.90;;;;;;5031226;28;20980;-77
2022/05/25 04:17:38;;;;;;;3.40;2.60;;;12.10;99.90;;;;;;5031837;28;20447;-78
2022/05/25 04:20:06;;;;;;;4.40;2.63;;;12.30;99.90;;;;;;5024918;28;20486;-78
2022/05/25 04:22:35;;;;;;;5.20;3.53;;;12.30;99.90;;;;;;5032806;28;20461;-78
2022/05/25 04:25:04;;;;;;;2.80;2.50;;;12.30;99.90;;;;;;5027773;28;21378;-78
2022/05/25 04:27:31;;;;;;;3.57;2.53;;;12.30;99.90;;;;;;5031507;28;20948;-78
2022/05/25 04:29:58;;;;;;;2.80;2.60;;;12.40;99.90;;;;;;5031087;28;20833;-77
2022/05/25 04:32:25;;;;;;;5.63;2.20;;;12.50;99.90;;;;;;5023703;28;20440;-78
2022/05/25 04:34:53;;;;;;;4.57;2.10;;;12.60;99.90;;;;;;5026228;28;20534;-77
2022/05/25 04:40:05;;;;;;;2.40;2.10;;;12.70;99.90;;;;;;5029211;28;20591;-78
2022/05/25 04:42:32;;;;;;;2.50;2.10;;;12.70;99.90;;;;;;5029289;28;20462;-78
2022/05/25 04:45:00;;;;;;;5.43;2.40;;;12.70;99.90;;;;;;5036008;28;20450;-77
2022/05/25 04:47:28;;;;;;;4.10;2.50;;;12.80;99.90;;;;;;5031408;28;20545;-77
2022/05/25 04:49:55;;;;;;;3.87;2.67;;;12.80;99.90;;;;;;5022625;28;20433;-78
2022/05/25 04:52:21;;;;;;;3.13;2.63;;;13.00;99.90;;;;;;5032886;28;20815;-78
2022/05/25 04:54:48;;;;;;;3.30;2.87;;;13.10;99.90;;;;;;5027628;28;20483;-77
2022/05/25 04:57:20;;;;;;;2.73;2.47;;;13.20;99.90;;;;;;5031095;28;20670;-77
2022/05/25 04:59:48;;;;;;;4.03;3.13;;;13.40;99.90;;;;;;5024008;28;20824;-78
2022/05/25 05:02:16;;;;;;;3.30;2.77;;;13.50;99.90;;;;;;5037710;28;20453;-77
2022/05/25 05:04:45;;;;;;;2.93;1.90;;;13.80;99.90;;;;;;5032207;28;20498;-77
2022/05/25 05:07:12;;;;;;;3.40;2.40;;;14.20;99.90;;;;;;5028143;28;20460;-78
2022/05/25 05:09:43;;;;;;;4.03;3.10;;;14.70;99.90;;;;;;5035159;28;20643;-77
2022/05/25 05:12:10;;;;;;;3.30;2.47;;;14.80;99.90;;;;;;5038088;28;20513;-77
2022/05/25 05:14:38;;;;;;;4.27;3.40;;;14.90;99.90;;;;;;5043341;28;20528;-78
2022/05/25 05:17:06;;;;;;;5.00;3.03;;;15.00;99.90;;;;;;5023278;28;20999;-78
2022/05/25 05:19:34;;;;;;;3.00;2.60;;;15.20;99.90;;;;;;5040179;28;20709;-78
2022/05/25 05:22:01;;;;;;;4.67;3.07;;;15.50;99.90;;;;;;5039584;28;20454;-77
2022/05/25 05:24:29;;;;;;;5.47;3.00;;;15.70;99.90;;;;;;5026670;28;20688;-78
2022/05/25 05:26:56;;;;;;;6.60;3.67;;;16.00;99.90;;;;;;5032460;28;20540;-77
2022/05/25 05:29:24;;;;;;;3.37;2.83;;;16.00;99.90;;;;;;5032618;28;20467;-78
2022/05/25 05:31:51;;;;;;;3.13;2.20;;;16.20;99.90;;;;;;5035770;28;20461;-78
2022/05/25 05:34:19;;;;;;;4.23;2.63;;;15.90;99.90;;;;;;5029987;28;20501;-77
2022/05/25 05:36:51;;;;;;;3.90;2.60;;;15.90;99.90;;;;;;5039905;28;20535;-78
2022/05/25 05:39:18;;;;;;;4.33;2.73;;;15.60;99.90;;;;;;5038527;28;20556;-77
2022/05/25 05:41:48;;;;;;;6.03;3.57;;;15.60;99.90;;;;;;5040265;28;20548;-78
2022/05/25 05:44:19;;;;;;;5.87;3.17;;;15.50;99.90;;;;;;5028381;28;20534;-78
2022/05/25 05:46:48;;;;;;;5.20;3.50;;;15.70;99.90;;;;;;5031419;28;20457;-78
2022/05/25 05:49:15;;;;;;;6.07;3.50;;;15.90;99.90;;;;;;5038420;28;20921;-78
2022/05/25 05:51:43;;;;;;;5.60;3.30;;;15.90;99.90;;;;;;5040741;28;20995;-76
2022/05/25 05:54:12;;;;;;;4.40;2.77;;;16.10;99.90;;;;;;5029123;28;20729;-78
2022/05/25 05:56:39;;;;;;;4.40;3.50;;;16.50;99.90;;;;;;5038371;28;20485;-78
2022/05/25 05:59:05;;;;;;;5.83;3.10;;;16.80;99.90;;;;;;5030995;28;20603;-78
2022/05/25 06:01:32;;;;;;;3.23;2.80;;;16.80;99.90;;;;;;5034442;28;22067;-78
2022/05/25 06:03:59;;;;;;;3.67;3.00;;;17.10;99.90;;;;;;5038388;28;20565;-78
2022/05/25 06:06:26;;;;;;;7.20;2.63;;;17.60;99.90;;;;;;5031245;28;21100;-77
2022/05/25 06:08:52;;;;;;;7.60;3.97;;;17.80;99.90;;;;;;5034319;28;20458;-77
2022/05/25 06:11:21;;;;;;;5.57;3.27;;;17.90;99.90;;;;;;5035921;28;20515;-78
2022/05/25 06:13:48;;;;;;;8.90;3.73;;;17.60;99.90;;;;;;5038648;28;20486;-78
2022/05/25 06:21:44;;;;;;;3.93;2.13;;;17.90;99.90;;;;;;5042315;28;20900;-77
2022/05/25 06:24:11;;;;;;;3.43;2.70;;;18.60;99.90;;;;;;5036833;28;20879;-77
2022/05/25 06:26:42;;;;;;;7.33;2.60;;;18.90;99.90;;;;;;5030790;28;20910;-78
2022/05/25 06:29:09;;;;;;;5.47;2.53;;;19.20;99.90;;;;;;5032622;28;20689;-76
2022/05/25 06:31:36;;;;;;;5.40;3.13;;;19.70;99.90;;;;;;5033454;28;20467;-78
2022/05/25 06:34:02;;;;;;;3.60;2.20;;;19.60;99.90;;;;;;5032066;28;20491;-76
2022/05/25 06:36:30;;;;;;;9.00;2.70;;;19.90;99.90;;;;;;5034854;28;20496;-77
2022/05/25 06:38:58;;;;;;;2.77;2.50;;;20.10;99.90;;;;;;5032732;28;20593;-77
2022/05/25 06:41:25;;;;;;;3.80;1.80;;;20.20;99.90;;;;;;5029745;28;20464;-77
2022/05/25 06:43:53;;;;;;;4.20;1.80;;;20.50;99.90;;;;;;5033571;28;20533;-77
2022/05/25 06:46:21;;;;;;;2.30;1.80;;;20.30;99.90;;;;;;5031465;28;20470;-76
2022/05/25 06:48:49;;;;;;;3.70;2.07;;;20.00;99.90;;;;;;5046792;28;20644;-77
2022/05/25 06:51:18;;;;;;;3.13;1.60;;;19.90;99.90;;;;;;5034042;28;20545;-78
2022/05/25 06:53:45;;;;;;;3.60;1.70;;;20.30;99.90;;;;;;5037139;28;20474;-78
2022/05/25 06:56:11;;;;;;;3.03;1.80;;;20.50;99.90;;;;;;5025937;28;20584;-77
2022/05/25 06:58:38;;;;;;;2.00;1.10;;;20.60;99.90;;;;;;5036173;28;21365;-77
2022/05/25 07:01:06;;;;;;;4.50;1.47;;;20.60;99.90;;;;;;5036061;28;20468;-77
2022/05/25 07:03:33;;;;;;;2.83;1.37;;;20.50;99.90;;;;;;5037720;28;21474;-77
2022/05/25 07:06:04;;;;;;;2.70;2.00;;;20.20;99.90;;;;;;5033645;28;20449;-76
2022/05/25 07:08:30;;;;;;;2.17;1.17;;;20.40;99.90;;;;;;5036514;28;20466;-77
2022/05/25 07:10:57;;;;;;;1.50;0.80;;;20.40;99.90;;;;;;5039509;28;20463;-77
2022/05/25 07:13:25;;;;;;;1.40;1.20;;;20.40;99.90;;;;;;5032633;28;20481;-77
2022/05/25 07:15:55;;;;;;;1.80;1.17;;;20.70;99.90;;;;;;5034751;28;20482;-77
2022/05/25 07:18:23;;;;;;;2.00;1.20;;;21.00;99.90;;;;;;5030254;28;20470;-77
2022/05/25 07:20:50;;;;;;;1.33;0.90;;;21.00;99.90;;;;;;5035390;28;20465;-76
2022/05/25 07:23:16;;;;;;;1.40;1.10;;;21.20;99.90;;;;;;5031214;28;21011;-77
2022/05/25 07:25:43;;;;;;;1.80;1.00;;;20.80;99.90;;;;;;5022872;28;20521;-77
2022/05/25 07:28:10;;;;;;;1.77;0.80;;;21.00;99.90;;;;;;5031922;28;20473;-77
2022/05/25 07:30:36;;;;;;;2.60;1.20;;;20.70;99.90;;;;;;5037246;28;20510;-76
2022/05/25 07:33:04;;;;;;;2.43;1.03;;;20.40;99.90;;;;;;5035156;28;20708;-77
2022/05/25 07:35:32;;;;;;;2.53;1.00;;;20.10;99.90;;;;;;5023923;28;21004;-76
2022/05/25 07:37:59;;;;;;;2.00;1.00;;;21.00;99.90;;;;;;5029354;28;20505;-77
2022/05/25 07:40:32;;;;;;;1.47;1.00;;;21.10;99.90;;;;;;5036364;28;21219;-76
2022/05/25 07:43:03;;;;;;;2.20;1.07;;;20.90;99.90;;;;;;5031989;28;20486;-77
2022/05/25 07:45:29;;;;;;;1.80;1.07;;;21.40;99.90;;;;;;5032352;28;21040;-77
2022/05/25 07:47:56;;;;;;;2.80;1.20;;;22.00;99.90;;;;;;5036785;28;20755;-77
2022/05/25 07:50:24;;;;;;;2.40;1.13;;;22.10;99.90;;;;;;5036013;28;20535;-77
2022/05/25 07:52:54;;;;;;;1.27;1.00;;;21.60;99.90;;;;;;5036793;28;20840;-77
2022/05/25 07:55:22;;;;;;;1.30;0.90;;;21.60;99.90;;;;;;5034040;28;20471;-77
2022/05/25 07:57:49;;;;;;;3.47;1.13;;;21.80;99.90;;;;;;5036396;28;20809;-76
2022/05/25 08:00:18;;;;;;;2.10;0.90;;;21.90;99.90;;;;;;5030481;28;21162;-74
2022/05/25 08:05:44;;;;;;;1.40;1.13;;;22.30;99.80;;;;;;4985355;28;20523;-76
2022/05/25 08:08:14;;;;;;;1.97;1.30;;;21.80;99.90;;;;;;5030770;28;20462;-76
2022/05/25 08:10:43;;;;;;;3.03;2.37;;;21.70;99.90;;;;;;5038125;28;20874;-76
2022/05/25 08:13:14;;;;;;;2.20;1.00;;;22.00;99.70;;;;;;5035806;28;21007;-77
2022/05/25 08:15:42;;;;;;;1.50;0.90;;;23.00;98.80;;;;;;5044559;28;20486;-77
2022/05/25 08:18:09;;;;;;;1.40;1.00;;;23.20;96.80;;;;;;5033257;28;20698;-77
2022/05/25 08:20:36;;;;;;;3.20;1.10;;;22.70;96.70;;;;;;5029333;28;20867;-77
2022/05/25 08:23:05;;;;;;;1.33;1.00;;;22.50;98.10;;;;;;5029637;28;20479;-78
2022/05/25 08:25:34;;;;;;;1.10;0.90;;;23.10;96.10;;;;;;5038900;28;20451;-77
2022/05/25 08:28:01;;;;;;;1.40;1.00;;;22.90;96.00;;;;;;5039307;28;20536;-77
2022/05/25 08:30:28;;;;;;;1.50;0.90;;;23.30;95.20;;;;;;5023754;28;20459;-77
2022/05/25 08:32:55;;;;;;;5.37;1.60;;;23.60;95.60;;;;;;5040159;28;20459;-78
2022/05/25 08:35:21;;;;;;;2.07;1.10;;;23.20;94.60;;;;;;5032188;28;20583;-77
2022/05/25 08:37:48;;;;;;;1.23;0.90;;;23.20;94.00;;;;;;5036511;28;20467;-77
2022/05/25 08:40:20;;;;;;;5.70;1.20;;;23.10;94.00;;;;;;5031000;28;20494;-78
2022/05/25 08:42:52;;;;;;;2.23;1.00;;;23.30;94.40;;;;;;5043190;28;20454;-77
2022/05/25 08:45:20;;;;;;;1.40;1.10;;;23.50;93.60;;;;;;5028717;28;20478;-78
2022/05/25 08:47:50;;;;;;;1.40;1.00;;;23.50;92.10;;;;;;5029919;28;20457;-78
2022/05/25 08:50:17;;;;;;;1.63;1.43;;;23.40;93.30;;;;;;5031616;28;20455;-78
2022/05/25 08:52:45;;;;;;;1.80;1.00;;;23.70;93.20;;;;;;5027093;28;20558;-77
2022/05/25 08:55:17;;;;;;;1.97;1.50;;;23.90;92.30;;;;;;5038423;28;22044;-78
2022/05/25 08:57:52;;;;;;;2.07;1.00;;;24.10;91.30;;;;;;5030036;28;20498;-77
2022/05/25 09:00:22;;;;;;;2.07;1.17;;;24.60;90.60;;;;;;5029335;28;20473;-78
2022/05/25 09:02:59;;;;;;;2.10;1.10;;;24.50;91.60;;;;;;5039099;28;20541;-78
2022/05/25 09:05:32;;;;;;;1.80;1.43;;;24.70;90.80;;;;;;5033115;28;20454;-78
2022/05/25 09:08:07;;;;;;;1.30;1.00;;;24.60;89.40;;;;;;5038303;28;20492;-78
2022/05/25 09:10:41;;;;;;;2.57;1.10;;;24.60;90.50;;;;;;5041908;28;20519;-78
2022/05/25 09:13:15;;;;;;;24.43;3.53;;;24.80;88.40;;;;;;5040726;28;20592;-78
2022/05/25 09:18:29;;;;;;;1.47;1.00;;;25.90;83.50;;;;;;5034517;28;20539;-78
2022/05/25 09:20:56;;;;;;;1.40;0.93;;;25.30;81.50;;;;;;5031140;28;22787;-77
2022/05/25 09:23:22;;;;;;;1.83;1.20;;;24.70;82.80;;;;;;5024657;28;20484;-77
2022/05/25 09:25:49;;;;;;;2.03;1.00;;;24.80;82.80;;;;;;5042928;28;20893;-78
2022/05/25 09:28:20;;;;;;;3.50;1.63;;;25.10;83.80;;;;;;5040008;28;20520;-77
2022/05/25 09:30:51;;;;;;;1.90;1.20;;;25.50;81.70;;;;;;5034346;28;21514;-78
2022/05/25 09:33:27;;;;;;;1.40;1.00;;;25.60;82.20;;;;;;5037785;28;20642;-77
2022/05/25 09:35:59;;;;;;;1.50;1.20;;;25.20;82.00;;;;;;5035419;28;20498;-78
2022/05/25 09:38:35;;;;;;;2.40;1.30;;;24.40;84.70;;;;;;5032940;28;20461;-77
2022/05/25 09:41:06;;;;;;;2.97;1.30;;;23.70;87.00;;;;;;5034732;28;20529;-77
2022/05/25 09:43:35;;;;;;;1.63;1.30;;;24.30;90.50;;;;;;5027810;28;20484;-77
2022/05/25 09:46:09;;;;;;;1.40;1.13;;;24.30;84.60;;;;;;5039927;28;21150;-77
2022/05/25 09:48:42;;;;;;;1.40;1.17;;;24.10;82.30;;;;;;5033324;28;20830;-76
2022/05/25 09:51:22;;;;;;;1.50;0.90;;;23.90;82.60;;;;;;5030585;28;20537;-78
2022/05/25 09:53:52;;;;;;;3.00;1.13;;;24.60;82.80;;;;;;5031221;28;20486;-78
2022/05/25 09:56:23;;;;;;;1.20;0.90;;;25.20;80.50;;;;;;5035637;28;20518;-77
2022/05/25 09:58:54;;;;;;;1.20;1.00;;;24.90;78.00;;;;;;5029259;28;20508;-78
2022/05/25 10:01:27;;;;;;;1.30;1.00;;;24.80;79.70;;;;;;5024700;28;20467;-77
2022/05/25 10:03:54;;;;;;;2.53;2.33;;;25.20;78.90;;;;;;5038502;28;20491;-78
2022/05/25 10:06:25;;;;;;;1.30;0.97;;;25.30;78.70;;;;;;5071122;22;20620;-70
2022/05/25 10:09:07;;;;;;;1.20;0.80;;;25.50;76.30;;;;;;5036970;28;20485;-71
2022/05/25 10:11:41;;;;;;;1.60;1.10;;;25.40;80.80;;;;;;5028237;28;20466;-71
2022/05/25 10:14:22;;;;;;;2.13;0.80;;;26.70;74.80;;;;;;5039741;28;20465;-70
2022/05/25 10:16:49;;;;;;;2.10;0.93;;;27.60;72.00;;;;;;5022885;28;20499;-70
2022/05/25 10:19:20;;;;;;;1.30;0.90;;;26.60;68.20;;;;;;5017930;28;21516;-70
2022/05/25 10:21:50;;;;;;;1.20;0.93;;;25.30;73.70;;;;;;5011037;28;20513;-70
2022/05/25 10:24:24;;;;;;;4.90;0.90;;;25.70;72.80;;;;;;5014509;28;21030;-71
2022/05/25 10:26:53;;;;;;;1.67;1.20;;;26.10;76.00;;;;;;5010374;28;20538;-72
2022/05/25 10:37:58;;;;;;;1.20;0.90;;;26.00;70.50;;;;;;5010201;28;20949;-71
2022/05/25 10:40:25;;;;;;;1.47;1.10;;;25.80;69.70;;;;;;5010637;28;20471;-71
2022/05/25 10:42:58;;;;;;;2.13;0.97;;;26.80;73.20;;;;;;5013153;28;20467;-72
2022/05/25 10:45:33;;;;;;;1.40;1.20;;;27.20;68.20;;;;;;5012064;28;20491;-71
2022/05/25 10:48:10;;;;;;;1.17;0.90;;;27.10;67.00;;;;;;5019366;28;20577;-71
2022/05/25 10:50:45;;;;;;;2.07;1.30;;;26.20;66.00;;;;;;5016173;28;20522;-71
2022/05/25 10:53:22;;;;;;;1.10;0.87;;;26.20;69.90;;;;;;5019050;28;20486;-70
2022/05/25 10:56:00;;;;;;;2.90;1.30;;;26.40;66.60;;;;;;5014670;28;20478;-71
2022/05/25 10:58:45;;;;;;;1.60;1.00;;;26.80;68.80;;;;;;5010874;28;20535;-71
2022/05/25 11:01:35;;;;;;;1.40;1.00;;;27.70;67.00;;;;;;5014455;28;20515;-71
2022/05/25 11:04:31;;;;;;;2.63;1.10;;;28.10;64.70;;;;;;5015966;28;20538;-71
2022/05/25 11:07:17;;;;;;;2.47;1.10;;;27.80;60.00;;;;;;5018854;28;20483;-71
2022/05/25 11:10:03;;;;;;;1.20;1.10;;;27.00;60.70;;;;;;5016274;28;20517;-71
2022/05/25 11:12:41;;;;;;;1.97;1.07;;;26.10;62.20;;;;;;5020437;28;20527;-71
2022/05/25 11:15:18;;;;;;;1.43;1.00;;;24.80;62.70;;;;;;5018953;28;20847;-71
2022/05/25 11:18:05;;;;;;;1.47;1.10;;;24.60;63.70;;;;;;5016244;28;20529;-71
2022/05/25 11:20:40;;;;;;;2.90;1.10;;;24.90;64.70;;;;;;5019388;28;20885;-71
2022/05/25 11:23:29;;;;;;;1.60;1.20;;;24.70;66.80;;;;;;5018269;28;20463;-72
2022/05/25 11:26:28;;;;;;;1.30;1.07;;;25.60;68.40;;;;;;5015877;28;20483;-71
2022/05/25 11:29:04;;;;;;;1.90;1.20;;;25.60;66.80;;;;;;5012934;28;20584;-70
2022/05/25 11:31:52;;;;;;;6.20;1.53;;;24.50;64.70;;;;;;5009508;28;21184;-71
2022/05/25 11:34:33;;;;;;;1.30;1.07;;;23.40;69.50;;;;;;5016975;28;21437;-71
2022/05/25 11:37:25;;;;;;;2.17;1.10;;;23.20;69.80;;;;;;5018105;28;20541;-71
2022/05/25 11:39:58;;;;;;;2.17;0.83;;;23.30;72.90;;;;;;5014131;28;20837;-71
2022/05/25 11:42:45;;;;;;;2.07;0.80;;;23.40;66.70;;;;;;5010703;28;21357;-71
2022/05/25 11:45:30;;;;;;;1.43;1.00;;;22.70;66.70;;;;;;5007529;28;20826;-71
2022/05/25 11:48:12;;;;;;;3.87;1.13;;;23.90;71.50;;;;;;5017804;28;20460;-71
2022/05/25 11:50:45;;;;;;;1.57;1.03;;;25.00;64.40;;;;;;5016162;28;20466;-71
2022/05/25 11:53:41;;;;;;;2.37;1.00;;;24.30;65.00;;;;;;5010887;28;20468;-71
2022/05/25 11:56:23;;;;;;;4.20;0.90;;;23.70;67.50;;;;;;5017605;28;20483;-71
2022/05/25 11:59:09;;;;;;;1.40;1.23;;;24.40;65.90;;;;;;5017881;28;20479;-71
2022/05/25 12:01:43;;;;;;;2.70;1.13;;;25.90;64.80;;;;;;5016240;28;21111;-70
2022/05/25 12:04:40;;;;;;;1.50;0.80;;;25.30;63.60;;;;;;5010898;28;20487;-71
2022/05/25 12:07:18;;;;;;;1.40;1.00;;;25.80;63.80;;;;;;5016774;28;20518;-70
2022/05/25 12:10:23;;;;;;;1.10;0.80;;;25.70;63.60;;;;;;5014752;28;20471;-71
2022/05/25 12:12:56;;;;;;;1.50;0.83;;;24.80;62.40;;;;;;4957221;28;20474;-71
2022/05/25 12:15:27;;;;;;;2.07;1.00;;;24.90;63.00;;;;;;4955380;28;20474;-71
2022/05/25 12:18:05;;;;;;;1.37;0.93;;;25.10;63.30;;;;;;4989187;28;20552;-71
2022/05/25 12:20:37;;;;;;;2.50;0.93;;;24.80;63.10;;;;;;5019034;28;20475;-70
2022/05/25 12:23:08;;;;;;;1.60;0.90;;;23.90;62.80;;;;;;5015176;28;20487;-71
2022/05/25 12:25:41;;;;;;;3.10;1.00;;;23.90;66.90;;;;;;5017440;28;20483;-71
2022/05/25 12:28:09;;;;;;;2.90;1.57;;;25.00;64.90;;;;;;5016844;28;20467;-71
2022/05/25 12:30:38;;;;;;;2.27;1.30;;;25.80;62.30;;;;;;5015452;28;21037;-71
2022/05/25 12:33:08;;;;;;;1.40;0.83;;;26.90;59.40;;;;;;5019573;28;20468;-71
2022/05/25 12:35:37;;;;;;;1.30;1.03;;;26.60;59.80;;;;;;5016612;28;20622;-70
2022/05/25 12:38:10;;;;;;;2.43;0.97;;;27.20;58.60;;;;;;5017667;28;20510;-71
2022/05/25 12:40:45;;;;;;;1.97;0.87;;;26.50;58.50;;;;;;5014962;28;20469;-71
2022/05/25 12:43:51;;;;;;;1.70;1.00;;;26.80;58.30;;;;;;5020517;28;20470;-70
2022/05/25 12:49:40;;;;;;;1.20;1.00;;;25.30;61.40;;;;;;5016964;28;20855;-71
2022/05/25 12:52:48;;;;;;;5.53;1.00;;;25.40;59.30;;;;;;5017796;28;20455;-72
2022/05/25 12:55:33;;;;;;;1.37;0.90;;;25.00;60.30;;;;;;5015625;28;20499;-71
2022/05/25 12:58:01;;;;;;;1.80;1.10;;;24.40;61.80;;;;;;5014767;28;20482;-70
2022/05/25 13:00:34;;;;;;;1.50;1.20;;;24.80;62.20;;;;;;5012626;28;20467;-70
2022/05/25 13:03:21;;;;;;;1.33;0.87;;;25.20;60.30;;;;;;5015872;28;21055;-72
2022/05/25 13:05:55;;;;;;;1.20;0.80;;;25.40;60.00;;;;;;5011443;28;20513;-71
2022/05/25 13:08:58;;;;;;;1.40;1.00;;;25.80;61.10;;;;;;5017898;28;20960;-70
2022/05/25 13:11:36;;;;;;;2.17;0.80;;;26.10;56.90;;;;;;5015255;28;20470;-69
2022/05/25 13:14:06;;;;;;;1.20;1.00;;;24.80;59.40;;;;;;5013883;28;20452;-69
2022/05/25 13:16:52;;;;;;;1.93;1.07;;;25.00;60.50;;;;;;5017406;28;20483;-70
2022/05/25 13:19:21;;;;;;;2.03;1.20;;;25.80;59.90;;;;;;5019799;28;20459;-72
2022/05/25 13:22:14;;;;;;;1.20;0.80;;;25.90;62.10;;;;;;5011811;28;20470;-71
2022/05/25 13:25:13;;;;;;;1.10;0.77;;;25.60;59.90;;;;;;5016954;28;20526;-71
2022/05/25 13:28:14;;;;;;;1.47;0.90;;;24.40;60.90;;;;;;5000018;28;20485;-71
2022/05/25 13:31:03;;;;;;;2.50;1.30;;;23.40;62.90;;;;;;5019001;28;20491;-72
2022/05/25 13:33:38;;;;;;;1.60;1.00;;;22.90;65.00;;;;;;5019744;28;20490;-71
2022/05/25 13:36:08;;;;;;;4.17;0.90;;;22.40;66.30;;;;;;5021260;28;20490;-70
2022/05/25 13:38:40;;;;;;;1.30;0.90;;;22.00;68.50;;;;;;5013539;28;20502;-71